sensor_id;sensor_type;location;lat;lon;timestamp;temperature;humidity
20712;DHT22;10517;50.742;4.224;2024-03-25T00:01:55;3.70;99.90
20712;DHT22;10517;50.742;4.224;2024-03-25T00:04:20;3.70;99.90
20712;DHT22;10517;50.742;4.224;2024-03-25T00:06:48;3.60;99.90
20712;DHT22;10517;50.742;4.224;2024-03-25T00:09:14;3.60;99.90
20712;DHT22;10517;50.742;4.224;2024-03-25T00:11:41;3.60;99.90
20712;DHT22;10517;50.742;4.224;2024-03-25T00:14:07;3.60;99.90
20712;DHT22;10517;50.742;4.224;2024-03-25T00:16:32;3.60;99.90
20712;DHT22;10517;50.742;4.224;2024-03-25T00:18:58;3.60;99.90
20712;DHT22;10517;50.742;4.224;2024-03-25T00:21:24;3.60;99.90
20712;DHT22;10517;50.742;4.224;2024-03-25T00:23:49;3.60;99.90
20712;DHT22;10517;50.742;4.224;2024-03-25T00:26:15;3.60;99.90
20712;DHT22;10517;50.742;4.224;2024-03-25T00:28:40;3.60;99.90
20712;DHT22;10517;50.742;4.224;2024-03-25T00:31:07;3.60;99.90
20712;DHT22;10517;50.742;4.224;2024-03-25T00:33:32;3.60;99.90
20712;DHT22;10517;50.742;4.224;2024-03-25T00:35:59;3.60;99.90
20712;DHT22;10517;50.742;4.224;2024-03-25T00:38:24;3.60;99.90
20712;DHT22;10517;50.742;4.224;2024-03-25T00:40:50;3.60;99.90
20712;DHT22;10517;50.742;4.224;2024-03-25T00:43:16;3.60;99.90
20712;DHT22;10517;50.742;4.224;2024-03-25T00:45:43;3.60;99.90
20712;DHT22;10517;50.742;4.224;2024-03-25T00:48:08;3.60;99.90
20712;DHT22;10517;50.742;4.224;2024-03-25T00:50:34;3.50;99.90
20712;DHT22;10517;50.742;4.224;2024-03-25T00:53:00;3.50;99.90
20712;DHT22;10517;50.742;4.224;2024-03-25T00:55:25;3.50;99.90
20712;DHT22;10517;50.742;4.224;2024-03-25T00:57:51;3.50;99.90
20712;DHT22;10517;50.742;4.224;2024-03-25T01:00:17;3.50;99.90
20712;DHT22;10517;50.742;4.224;2024-03-25T01:02:43;3.50;99.90
20712;DHT22;10517;50.742;4.224;2024-03-25T01:05:09;3.50;99.90
20712;DHT22;10517;50.742;4.224;2024-03-25T01:07:35;3.50;99.90
20712;DHT22;10517;50.742;4.224;2024-03-25T01:10:01;3.40;99.90
20712;DHT22;10517;50.742;4.224;2024-03-25T01:12:26;3.40;99.90
20712;DHT22;10517;50.742;4.224;2024-03-25T01:14:52;3.40;99.90
20712;DHT22;10517;50.742;4.224;2024-03-25T01:17:18;3.40;99.90
20712;DHT22;10517;50.742;4.224;2024-03-25T01:19:44;3.40;99.90
20712;DHT22;10517;50.742;4.224;2024-03-25T01:22:09;3.30;99.90
20712;DHT22;10517;50.742;4.224;2024-03-25T01:24:35;3.30;99.90
20712;DHT22;10517;50.742;4.224;2024-03-25T01:27:01;3.30;99.90
20712;DHT22;10517;50.742;4.224;2024-03-25T01:29:26;3.30;99.90
20712;DHT22;10517;50.742;4.224;2024-03-25T01:31:52;3.20;99.90
20712;DHT22;10517;50.742;4.224;2024-03-25T01:34:18;3.20;99.90
20712;DHT22;10517;50.742;4.224;2024-03-25T01:36:43;3.20;99.90
20712;DHT22;10517;50.742;4.224;2024-03-25T01:39:09;3.20;99.90
20712;DHT22;10517;50.742;4.224;2024-03-25T01:41:35;3.30;99.90
20712;DHT22;10517;50.742;4.224;2024-03-25T01:44:01;3.30;99.90
20712;DHT22;10517;50.742;4.224;2024-03-25T01:46:27;3.30;99.90
20712;DHT22;10517;50.742;4.224;2024-03-25T01:48:54;3.30;99.90
20712;DHT22;10517;50.742;4.224;2024-03-25T01:51:23;3.30;99.90
20712;DHT22;10517;50.742;4.224;2024-03-25T01:53:50;3.30;99.90
20712;DHT22;10517;50.742;4.224;2024-03-25T01:56:18;3.30;99.90
20712;DHT22;10517;50.742;4.224;2024-03-25T01:58:45;3.20;99.90
20712;DHT22;10517;50.742;4.224;2024-03-25T02:01:11;3.20;99.90
20712;DHT22;10517;50.742;4.224;2024-03-25T02:03:41;3.20;99.90
20712;DHT22;10517;50.742;4.224;2024-03-25T02:06:12;3.20;99.90
20712;DHT22;10517;50.742;4.224;2024-03-25T02:08:40;3.20;99.90
20712;DHT22;10517;50.742;4.224;2024-03-25T02:11:06;3.20;99.90
20712;DHT22;10517;50.742;4.224;2024-03-25T02:13:32;3.20;99.90
20712;DHT22;10517;50.742;4.224;2024-03-25T02:15:58;3.30;99.90
20712;DHT22;10517;50.742;4.224;2024-03-25T02:18:23;3.40;99.90
20712;DHT22;10517;50.742;4.224;2024-03-25T02:20:49;3.50;99.90
20712;DHT22;10517;50.742;4.224;2024-03-25T02:23:15;3.60;99.90
20712;DHT22;10517;50.742;4.224;2024-03-25T02:25:42;3.70;99.90
20712;DHT22;10517;50.742;4.224;2024-03-25T02:28:08;3.80;99.90
20712;DHT22;10517;50.742;4.224;2024-03-25T02:30:34;4.00;99.90
20712;DHT22;10517;50.742;4.224;2024-03-25T02:32:59;4.10;99.90
20712;DHT22;10517;50.742;4.224;2024-03-25T02:35:26;4.20;99.90
20712;DHT22;10517;50.742;4.224;2024-03-25T02:37:53;4.30;99.90
20712;DHT22;10517;50.742;4.224;2024-03-25T02:40:19;4.40;99.90
20712;DHT22;10517;50.742;4.224;2024-03-25T02:42:46;4.60;99.90
20712;DHT22;10517;50.742;4.224;2024-03-25T02:45:12;4.70;99.90
20712;DHT22;10517;50.742;4.224;2024-03-25T02:47:37;4.80;99.90
20712;DHT22;10517;50.742;4.224;2024-03-25T02:50:03;4.90;99.90
20712;DHT22;10517;50.742;4.224;2024-03-25T02:52:29;5.00;99.90
20712;DHT22;10517;50.742;4.224;2024-03-25T02:54:54;5.10;99.90
20712;DHT22;10517;50.742;4.224;2024-03-25T02:57:20;5.20;99.90
20712;DHT22;10517;50.742;4.224;2024-03-25T02:59:46;5.30;99.90
20712;DHT22;10517;50.742;4.224;2024-03-25T03:02:12;5.40;99.90
20712;DHT22;10517;50.742;4.224;2024-03-25T03:04:37;5.40;99.90
20712;DHT22;10517;50.742;4.224;2024-03-25T03:07:03;5.50;99.90
20712;DHT22;10517;50.742;4.224;2024-03-25T03:09:29;5.50;99.90
20712;DHT22;10517;50.742;4.224;2024-03-25T03:11:55;5.60;99.90
20712;DHT22;10517;50.742;4.224;2024-03-25T03:14:21;5.70;99.90
20712;DHT22;10517;50.742;4.224;2024-03-25T03:16:46;5.70;99.90
20712;DHT22;10517;50.742;4.224;2024-03-25T03:19:12;5.70;99.90
20712;DHT22;10517;50.742;4.224;2024-03-25T03:21:37;5.70;99.90
20712;DHT22;10517;50.742;4.224;2024-03-25T03:24:06;5.70;99.90
20712;DHT22;10517;50.742;4.224;2024-03-25T03:26:32;5.80;99.90
20712;DHT22;10517;50.742;4.224;2024-03-25T03:28:58;5.80;99.90
20712;DHT22;10517;50.742;4.224;2024-03-25T03:31:25;5.70;99.90
20712;DHT22;10517;50.742;4.224;2024-03-25T03:33:51;5.70;99.90
20712;DHT22;10517;50.742;4.224;2024-03-25T03:36:17;5.70;99.90
20712;DHT22;10517;50.742;4.224;2024-03-25T03:38:43;5.70;99.90
20712;DHT22;10517;50.742;4.224;2024-03-25T03:41:09;5.60;99.90
20712;DHT22;10517;50.742;4.224;2024-03-25T03:43:35;5.60;99.90
20712;DHT22;10517;50.742;4.224;2024-03-25T03:46:01;5.50;99.90
20712;DHT22;10517;50.742;4.224;2024-03-25T03:48:28;5.50;99.90
20712;DHT22;10517;50.742;4.224;2024-03-25T03:50:53;5.50;99.90
20712;DHT22;10517;50.742;4.224;2024-03-25T03:53:19;5.50;99.90
20712;DHT22;10517;50.742;4.224;2024-03-25T03:55:58;5.60;99.90
20712;DHT22;10517;50.742;4.224;2024-03-25T03:58:24;5.50;99.90
20712;DHT22;10517;50.742;4.224;2024-03-25T04:00:51;5.60;99.90
20712;DHT22;10517;50.742;4.224;2024-03-25T04:03:17;5.60;99.90
20712;DHT22;10517;50.742;4.224;2024-03-25T04:05:42;5.50;99.90
20712;DHT22;10517;50.742;4.224;2024-03-25T04:08:08;5.40;99.90
20712;DHT22;10517;50.742;4.224;2024-03-25T04:10:34;5.30;99.90
20712;DHT22;10517;50.742;4.224;2024-03-25T04:13:00;5.30;99.90
20712;DHT22;10517;50.742;4.224;2024-03-25T04:15:26;5.30;99.90
20712;DHT22;10517;50.742;4.224;2024-03-25T04:17:52;5.30;99.90
20712;DHT22;10517;50.742;4.224;2024-03-25T04:20:18;5.20;99.90
20712;DHT22;10517;50.742;4.224;2024-03-25T04:22:46;5.20;99.90
20712;DHT22;10517;50.742;4.224;2024-03-25T04:25:13;5.10;99.90
20712;DHT22;10517;50.742;4.224;2024-03-25T04:27:42;5.10;99.90
20712;DHT22;10517;50.742;4.224;2024-03-25T04:30:09;5.10;99.90
20712;DHT22;10517;50.742;4.224;2024-03-25T04:32:35;5.00;99.90
20712;DHT22;10517;50.742;4.224;2024-03-25T04:35:02;4.90;99.90
20712;DHT22;10517;50.742;4.224;2024-03-25T04:37:29;4.80;99.90
20712;DHT22;10517;50.742;4.224;2024-03-25T04:39:55;4.80;99.90
20712;DHT22;10517;50.742;4.224;2024-03-25T04:42:22;4.70;99.90
20712;DHT22;10517;50.742;4.224;2024-03-25T04:44:47;4.70;99.90
20712;DHT22;10517;50.742;4.224;2024-03-25T04:47:13;4.60;99.90
20712;DHT22;10517;50.742;4.224;2024-03-25T04:49:40;4.50;99.90
20712;DHT22;10517;50.742;4.224;2024-03-25T04:52:06;4.50;99.90
20712;DHT22;10517;50.742;4.224;2024-03-25T04:54:32;4.50;99.90
20712;DHT22;10517;50.742;4.224;2024-03-25T04:56:58;4.50;99.90
20712;DHT22;10517;50.742;4.224;2024-03-25T04:59:23;4.50;99.90
20712;DHT22;10517;50.742;4.224;2024-03-25T05:01:49;4.50;99.90
20712;DHT22;10517;50.742;4.224;2024-03-25T05:04:15;4.50;99.90
20712;DHT22;10517;50.742;4.224;2024-03-25T05:06:40;4.50;99.90
20712;DHT22;10517;50.742;4.224;2024-03-25T05:09:06;4.50;99.90
20712;DHT22;10517;50.742;4.224;2024-03-25T05:11:32;4.60;99.90
20712;DHT22;10517;50.742;4.224;2024-03-25T05:13:58;4.60;99.90
20712;DHT22;10517;50.742;4.224;2024-03-25T05:16:24;4.50;99.90
20712;DHT22;10517;50.742;4.224;2024-03-25T05:18:49;4.40;99.90
20712;DHT22;10517;50.742;4.224;2024-03-25T05:21:15;4.40;99.90
20712;DHT22;10517;50.742;4.224;2024-03-25T05:23:41;4.40;99.90
20712;DHT22;10517;50.742;4.224;2024-03-25T05:26:06;4.40;99.90
20712;DHT22;10517;50.742;4.224;2024-03-25T05:28:32;4.40;99.90
20712;DHT22;10517;50.742;4.224;2024-03-25T05:31:08;4.40;99.90
20712;DHT22;10517;50.742;4.224;2024-03-25T05:33:34;4.50;99.90
20712;DHT22;10517;50.742;4.224;2024-03-25T05:36:00;4.50;99.90
20712;DHT22;10517;50.742;4.224;2024-03-25T05:38:27;4.50;99.90
20712;DHT22;10517;50.742;4.224;2024-03-25T05:40:52;4.50;99.90
20712;DHT22;10517;50.742;4.224;2024-03-25T05:43:18;4.50;99.90
20712;DHT22;10517;50.742;4.224;2024-03-25T05:45:55;4.60;99.90
20712;DHT22;10517;50.742;4.224;2024-03-25T05:48:21;4.70;99.90
20712;DHT22;10517;50.742;4.224;2024-03-25T05:53:22;5.00;99.90
20712;DHT22;10517;50.742;4.224;2024-03-25T05:55:48;5.00;99.90
20712;DHT22;10517;50.742;4.224;2024-03-25T05:58:14;5.10;99.90
20712;DHT22;10517;50.742;4.224;2024-03-25T06:00:39;5.10;99.90
20712;DHT22;10517;50.742;4.224;2024-03-25T06:03:05;5.20;99.90
20712;DHT22;10517;50.742;4.224;2024-03-25T06:05:30;5.20;99.90
20712;DHT22;10517;50.742;4.224;2024-03-25T06:07:56;5.20;99.90
20712;DHT22;10517;50.742;4.224;2024-03-25T06:10:21;5.20;99.90
20712;DHT22;10517;50.742;4.224;2024-03-25T06:12:47;5.30;99.90
20712;DHT22;10517;50.742;4.224;2024-03-25T06:15:13;5.40;99.90
20712;DHT22;10517;50.742;4.224;2024-03-25T06:17:39;5.50;99.90
20712;DHT22;10517;50.742;4.224;2024-03-25T06:20:05;5.60;99.90
20712;DHT22;10517;50.742;4.224;2024-03-25T06:22:30;5.70;99.90
20712;DHT22;10517;50.742;4.224;2024-03-25T06:24:56;5.70;99.90
20712;DHT22;10517;50.742;4.224;2024-03-25T06:27:21;5.80;99.90
20712;DHT22;10517;50.742;4.224;2024-03-25T06:29:47;5.90;99.90
20712;DHT22;10517;50.742;4.224;2024-03-25T06:32:13;6.00;99.90
20712;DHT22;10517;50.742;4.224;2024-03-25T06:34:57;6.10;99.90
20712;DHT22;10517;50.742;4.224;2024-03-25T06:37:26;6.20;99.90
20712;DHT22;10517;50.742;4.224;2024-03-25T06:39:51;6.30;99.90
20712;DHT22;10517;50.742;4.224;2024-03-25T06:42:18;6.40;99.90
20712;DHT22;10517;50.742;4.224;2024-03-25T06:44:44;6.40;99.90
20712;DHT22;10517;50.742;4.224;2024-03-25T06:47:14;6.50;99.90
20712;DHT22;10517;50.742;4.224;2024-03-25T06:49:40;6.60;99.90
20712;DHT22;10517;50.742;4.224;2024-03-25T06:52:06;6.60;99.90
20712;DHT22;10517;50.742;4.224;2024-03-25T06:54:31;6.70;99.90
20712;DHT22;10517;50.742;4.224;2024-03-25T06:56:57;6.80;99.90
20712;DHT22;10517;50.742;4.224;2024-03-25T06:59:22;6.80;99.90
20712;DHT22;10517;50.742;4.224;2024-03-25T07:01:48;6.90;99.90
20712;DHT22;10517;50.742;4.224;2024-03-25T07:04:13;7.00;99.90
20712;DHT22;10517;50.742;4.224;2024-03-25T07:06:39;7.00;99.90
20712;DHT22;10517;50.742;4.224;2024-03-25T07:09:08;7.00;99.90
20712;DHT22;10517;50.742;4.224;2024-03-25T07:11:36;7.20;99.90
20712;DHT22;10517;50.742;4.224;2024-03-25T07:14:02;7.20;99.90
20712;DHT22;10517;50.742;4.224;2024-03-25T07:16:27;7.30;99.90
20712;DHT22;10517;50.742;4.224;2024-03-25T07:18:53;7.30;99.90
20712;DHT22;10517;50.742;4.224;2024-03-25T07:21:18;7.30;99.90
20712;DHT22;10517;50.742;4.224;2024-03-25T07:23:44;7.30;99.90
20712;DHT22;10517;50.742;4.224;2024-03-25T07:26:10;7.50;99.90
20712;DHT22;10517;50.742;4.224;2024-03-25T07:28:35;7.60;99.90
20712;DHT22;10517;50.742;4.224;2024-03-25T07:31:01;7.60;99.90
20712;DHT22;10517;50.742;4.224;2024-03-25T07:33:27;7.60;99.90
20712;DHT22;10517;50.742;4.224;2024-03-25T07:35:54;7.60;99.90
20712;DHT22;10517;50.742;4.224;2024-03-25T07:38:20;7.70;99.90
20712;DHT22;10517;50.742;4.224;2024-03-25T07:40:45;7.70;99.90
20712;DHT22;10517;50.742;4.224;2024-03-25T07:43:11;7.70;99.90
20712;DHT22;10517;50.742;4.224;2024-03-25T07:45:37;7.90;99.90
20712;DHT22;10517;50.742;4.224;2024-03-25T07:48:04;8.00;99.90
20712;DHT22;10517;50.742;4.224;2024-03-25T07:50:30;8.00;99.90
20712;DHT22;10517;50.742;4.224;2024-03-25T07:52:55;8.10;99.90
20712;DHT22;10517;50.742;4.224;2024-03-25T07:55:21;8.30;99.90
20712;DHT22;10517;50.742;4.224;2024-03-25T07:57:46;8.40;99.90
20712;DHT22;10517;50.742;4.224;2024-03-25T08:00:12;8.50;99.90
20712;DHT22;10517;50.742;4.224;2024-03-25T08:02:38;8.60;99.90
20712;DHT22;10517;50.742;4.224;2024-03-25T08:05:04;8.70;99.90
20712;DHT22;10517;50.742;4.224;2024-03-25T08:07:30;8.70;99.90
20712;DHT22;10517;50.742;4.224;2024-03-25T08:09:56;8.90;99.90
20712;DHT22;10517;50.742;4.224;2024-03-25T08:12:21;9.00;99.90
20712;DHT22;10517;50.742;4.224;2024-03-25T08:14:47;8.90;99.90
20712;DHT22;10517;50.742;4.224;2024-03-25T08:17:13;9.10;99.90
20712;DHT22;10517;50.742;4.224;2024-03-25T08:19:38;9.10;99.90
20712;DHT22;10517;50.742;4.224;2024-03-25T08:22:04;9.10;99.90
20712;DHT22;10517;50.742;4.224;2024-03-25T08:24:29;9.10;99.90
20712;DHT22;10517;50.742;4.224;2024-03-25T08:26:55;9.10;99.90
20712;DHT22;10517;50.742;4.224;2024-03-25T08:29:20;8.90;99.90
20712;DHT22;10517;50.742;4.224;2024-03-25T08:31:46;9.00;99.90
20712;DHT22;10517;50.742;4.224;2024-03-25T08:34:12;9.00;99.90
20712;DHT22;10517;50.742;4.224;2024-03-25T08:36:37;9.10;99.90
20712;DHT22;10517;50.742;4.224;2024-03-25T08:39:03;9.20;99.90
20712;DHT22;10517;50.742;4.224;2024-03-25T08:41:29;9.20;99.90
20712;DHT22;10517;50.742;4.224;2024-03-25T08:43:55;9.30;99.90
20712;DHT22;10517;50.742;4.224;2024-03-25T08:46:20;9.30;99.90
20712;DHT22;10517;50.742;4.224;2024-03-25T08:48:46;9.30;99.90
20712;DHT22;10517;50.742;4.224;2024-03-25T08:51:12;9.40;99.90
20712;DHT22;10517;50.742;4.224;2024-03-25T08:53:37;9.60;99.90
20712;DHT22;10517;50.742;4.224;2024-03-25T08:56:03;9.70;99.90
20712;DHT22;10517;50.742;4.224;2024-03-25T08:58:29;9.80;99.90
20712;DHT22;10517;50.742;4.224;2024-03-25T09:00:54;9.80;99.90
20712;DHT22;10517;50.742;4.224;2024-03-25T09:03:20;9.80;99.90
20712;DHT22;10517;50.742;4.224;2024-03-25T09:05:47;9.80;99.90
20712;DHT22;10517;50.742;4.224;2024-03-25T09:08:12;9.90;99.90
20712;DHT22;10517;50.742;4.224;2024-03-25T09:10:38;9.90;99.90
20712;DHT22;10517;50.742;4.224;2024-03-25T09:13:22;10.00;99.90
20712;DHT22;10517;50.742;4.224;2024-03-25T09:15:50;10.10;99.90
20712;DHT22;10517;50.742;4.224;2024-03-25T09:18:16;10.30;99.90
20712;DHT22;10517;50.742;4.224;2024-03-25T09:20:44;10.30;99.90
20712;DHT22;10517;50.742;4.224;2024-03-25T09:23:09;10.30;99.90
20712;DHT22;10517;50.742;4.224;2024-03-25T09:25:35;10.30;99.90
20712;DHT22;10517;50.742;4.224;2024-03-25T09:28:00;10.40;99.90
20712;DHT22;10517;50.742;4.224;2024-03-25T09:30:26;10.40;99.90
20712;DHT22;10517;50.742;4.224;2024-03-25T09:32:52;10.60;99.90
20712;DHT22;10517;50.742;4.224;2024-03-25T09:35:17;10.60;99.90
20712;DHT22;10517;50.742;4.224;2024-03-25T09:37:43;10.80;99.90
20712;DHT22;10517;50.742;4.224;2024-03-25T09:40:09;11.10;99.90
20712;DHT22;10517;50.742;4.224;2024-03-25T09:42:48;11.20;99.90
20712;DHT22;10517;50.742;4.224;2024-03-25T09:45:16;11.30;99.90
20712;DHT22;10517;50.742;4.224;2024-03-25T09:47:45;11.40;99.90
20712;DHT22;10517;50.742;4.224;2024-03-25T09:50:15;11.60;99.90
20712;DHT22;10517;50.742;4.224;2024-03-25T09:52:51;11.70;99.90
20712;DHT22;10517;50.742;4.224;2024-03-25T09:55:17;11.80;99.90
20712;DHT22;10517;50.742;4.224;2024-03-25T09:57:43;11.70;99.90
20712;DHT22;10517;50.742;4.224;2024-03-25T10:00:09;11.70;99.90
20712;DHT22;10517;50.742;4.224;2024-03-25T10:02:38;11.60;99.90
20712;DHT22;10517;50.742;4.224;2024-03-25T10:05:07;11.70;99.90
20712;DHT22;10517;50.742;4.224;2024-03-25T10:07:34;11.80;99.90
20712;DHT22;10517;50.742;4.224;2024-03-25T10:10:03;12.00;99.90
20712;DHT22;10517;50.742;4.224;2024-03-25T10:12:30;12.00;99.90
20712;DHT22;10517;50.742;4.224;2024-03-25T10:14:56;12.20;99.90
20712;DHT22;10517;50.742;4.224;2024-03-25T10:17:23;12.20;99.90
20712;DHT22;10517;50.742;4.224;2024-03-25T10:19:48;12.10;99.90
20712;DHT22;10517;50.742;4.224;2024-03-25T10:22:14;12.30;99.90
20712;DHT22;10517;50.742;4.224;2024-03-25T10:24:46;12.40;99.90
20712;DHT22;10517;50.742;4.224;2024-03-25T10:27:18;12.40;99.90
20712;DHT22;10517;50.742;4.224;2024-03-25T10:29:48;12.60;99.90
20712;DHT22;10517;50.742;4.224;2024-03-25T10:32:14;12.90;99.90
20712;DHT22;10517;50.742;4.224;2024-03-25T10:34:40;13.00;99.90
20712;DHT22;10517;50.742;4.224;2024-03-25T10:37:09;12.90;99.90
20712;DHT22;10517;50.742;4.224;2024-03-25T10:39:48;12.90;99.90
20712;DHT22;10517;50.742;4.224;2024-03-25T10:42:20;12.90;99.90
20712;DHT22;10517;50.742;4.224;2024-03-25T10:44:47;13.00;99.90
20712;DHT22;10517;50.742;4.224;2024-03-25T10:47:21;13.20;99.90
20712;DHT22;10517;50.742;4.224;2024-03-25T10:50:08;13.20;99.90
20712;DHT22;10517;50.742;4.224;2024-03-25T10:52:36;13.30;99.90
20712;DHT22;10517;50.742;4.224;2024-03-25T10:55:03;13.40;99.90
20712;DHT22;10517;50.742;4.224;2024-03-25T10:57:29;13.50;99.90
20712;DHT22;10517;50.742;4.224;2024-03-25T10:59:57;13.60;99.90
20712;DHT22;10517;50.742;4.224;2024-03-25T11:02:23;13.40;99.90
20712;DHT22;10517;50.742;4.224;2024-03-25T11:04:49;13.40;99.90
20712;DHT22;10517;50.742;4.224;2024-03-25T11:07:17;13.40;99.90
20712;DHT22;10517;50.742;4.224;2024-03-25T11:09:42;13.50;99.90
20712;DHT22;10517;50.742;4.224;2024-03-25T11:12:12;13.60;99.90
20712;DHT22;10517;50.742;4.224;2024-03-25T11:14:39;13.50;99.90
20712;DHT22;10517;50.742;4.224;2024-03-25T11:17:15;13.40;99.90
20712;DHT22;10517;50.742;4.224;2024-03-25T11:19:41;13.50;99.90
20712;DHT22;10517;50.742;4.224;2024-03-25T11:22:08;13.50;99.90
20712;DHT22;10517;50.742;4.224;2024-03-25T11:24:35;13.80;99.90
20712;DHT22;10517;50.742;4.224;2024-03-25T11:27:05;14.20;99.90
20712;DHT22;10517;50.742;4.224;2024-03-25T11:29:31;14.40;99.90
20712;DHT22;10517;50.742;4.224;2024-03-25T11:32:01;14.60;99.90
20712;DHT22;10517;50.742;4.224;2024-03-25T11:34:28;14.80;99.90
20712;DHT22;10517;50.742;4.224;2024-03-25T11:36:54;14.80;99.90
20712;DHT22;10517;50.742;4.224;2024-03-25T11:39:22;14.60;99.90
20712;DHT22;10517;50.742;4.224;2024-03-25T11:41:48;14.40;99.90
20712;DHT22;10517;50.742;4.224;2024-03-25T11:44:14;14.30;99.90
20712;DHT22;10517;50.742;4.224;2024-03-25T11:46:40;14.30;99.90
20712;DHT22;10517;50.742;4.224;2024-03-25T11:49:07;14.50;99.90
20712;DHT22;10517;50.742;4.224;2024-03-25T11:51:34;14.60;99.90
20712;DHT22;10517;50.742;4.224;2024-03-25T11:54:03;14.50;99.90
20712;DHT22;10517;50.742;4.224;2024-03-25T11:56:30;14.70;99.90
20712;DHT22;10517;50.742;4.224;2024-03-25T11:58:56;14.80;99.90
20712;DHT22;10517;50.742;4.224;2024-03-25T12:01:22;15.10;99.90
20712;DHT22;10517;50.742;4.224;2024-03-25T12:03:47;15.30;99.90
20712;DHT22;10517;50.742;4.224;2024-03-25T12:06:13;15.30;99.90
20712;DHT22;10517;50.742;4.224;2024-03-25T12:08:39;15.20;99.90
20712;DHT22;10517;50.742;4.224;2024-03-25T12:11:25;15.30;99.90
20712;DHT22;10517;50.742;4.224;2024-03-25T12:13:51;15.00;99.90
20712;DHT22;10517;50.742;4.224;2024-03-25T12:16:17;14.80;99.90
20712;DHT22;10517;50.742;4.224;2024-03-25T12:18:42;14.60;99.90
20712;DHT22;10517;50.742;4.224;2024-03-25T12:21:08;14.50;99.90
20712;DHT22;10517;50.742;4.224;2024-03-25T12:23:35;14.70;99.90
20712;DHT22;10517;50.742;4.224;2024-03-25T12:26:02;15.00;99.90
20712;DHT22;10517;50.742;4.224;2024-03-25T12:28:30;15.40;99.90
20712;DHT22;10517;50.742;4.224;2024-03-25T12:30:56;15.60;99.90
20712;DHT22;10517;50.742;4.224;2024-03-25T12:33:25;15.50;99.90
20712;DHT22;10517;50.742;4.224;2024-03-25T12:35:52;15.10;99.90
20712;DHT22;10517;50.742;4.224;2024-03-25T12:38:28;15.10;99.90
20712;DHT22;10517;50.742;4.224;2024-03-25T12:41:02;15.40;99.90
20712;DHT22;10517;50.742;4.224;2024-03-25T12:43:30;15.20;99.90
20712;DHT22;10517;50.742;4.224;2024-03-25T12:45:57;15.20;99.90
20712;DHT22;10517;50.742;4.224;2024-03-25T12:48:23;14.90;99.90
20712;DHT22;10517;50.742;4.224;2024-03-25T12:50:49;15.20;99.90
20712;DHT22;10517;50.742;4.224;2024-03-25T12:53:17;15.20;99.90
20712;DHT22;10517;50.742;4.224;2024-03-25T12:55:43;15.40;99.90
20712;DHT22;10517;50.742;4.224;2024-03-25T12:58:09;15.50;99.90
20712;DHT22;10517;50.742;4.224;2024-03-25T13:00:34;15.80;99.90
20712;DHT22;10517;50.742;4.224;2024-03-25T13:03:00;15.90;99.90
20712;DHT22;10517;50.742;4.224;2024-03-25T13:05:27;16.10;99.90
20712;DHT22;10517;50.742;4.224;2024-03-25T13:07:54;16.00;99.90
20712;DHT22;10517;50.742;4.224;2024-03-25T13:10:20;16.10;99.90
20712;DHT22;10517;50.742;4.224;2024-03-25T13:12:45;16.00;99.90
20712;DHT22;10517;50.742;4.224;2024-03-25T13:15:11;16.00;99.90
20712;DHT22;10517;50.742;4.224;2024-03-25T13:17:37;16.00;99.90
20712;DHT22;10517;50.742;4.224;2024-03-25T13:20:02;16.10;99.90
20712;DHT22;10517;50.742;4.224;2024-03-25T13:22:30;16.20;99.90
20712;DHT22;10517;50.742;4.224;2024-03-25T13:24:58;16.20;99.90
20712;DHT22;10517;50.742;4.224;2024-03-25T13:27:23;16.20;99.90
20712;DHT22;10517;50.742;4.224;2024-03-25T13:29:49;16.90;99.90
20712;DHT22;10517;50.742;4.224;2024-03-25T13:32:14;17.00;99.90
20712;DHT22;10517;50.742;4.224;2024-03-25T13:34:40;16.90;99.90
20712;DHT22;10517;50.742;4.224;2024-03-25T13:37:06;16.80;99.90
20712;DHT22;10517;50.742;4.224;2024-03-25T13:39:31;16.60;99.90
20712;DHT22;10517;50.742;4.224;2024-03-25T13:41:57;16.70;99.90
20712;DHT22;10517;50.742;4.224;2024-03-25T13:44:23;17.20;99.90
20712;DHT22;10517;50.742;4.224;2024-03-25T13:46:50;18.20;99.90
20712;DHT22;10517;50.742;4.224;2024-03-25T13:49:16;19.40;99.90
20712;DHT22;10517;50.742;4.224;2024-03-25T13:51:43;19.50;99.90
20712;DHT22;10517;50.742;4.224;2024-03-25T13:54:09;19.40;99.90
20712;DHT22;10517;50.742;4.224;2024-03-25T13:56:35;19.60;99.90
20712;DHT22;10517;50.742;4.224;2024-03-25T13:59:00;20.00;99.90
20712;DHT22;10517;50.742;4.224;2024-03-25T14:01:26;20.40;99.90
20712;DHT22;10517;50.742;4.224;2024-03-25T14:03:51;19.90;99.90
20712;DHT22;10517;50.742;4.224;2024-03-25T14:06:17;19.30;99.90
20712;DHT22;10517;50.742;4.224;2024-03-25T14:08:42;19.00;99.90
20712;DHT22;10517;50.742;4.224;2024-03-25T14:11:09;19.20;99.90
20712;DHT22;10517;50.742;4.224;2024-03-25T14:13:35;19.20;99.90
20712;DHT22;10517;50.742;4.224;2024-03-25T14:16:01;19.70;99.90
20712;DHT22;10517;50.742;4.224;2024-03-25T14:18:27;20.90;99.90
20712;DHT22;10517;50.742;4.224;2024-03-25T14:20:53;21.90;99.90
20712;DHT22;10517;50.742;4.224;2024-03-25T14:23:18;22.10;99.90
20712;DHT22;10517;50.742;4.224;2024-03-25T14:25:44;22.10;99.90
20712;DHT22;10517;50.742;4.224;2024-03-25T14:28:10;22.50;99.90
20712;DHT22;10517;50.742;4.224;2024-03-25T14:30:36;22.40;99.90
20712;DHT22;10517;50.742;4.224;2024-03-25T14:33:01;22.80;99.90
20712;DHT22;10517;50.742;4.224;2024-03-25T14:35:27;22.90;99.90
20712;DHT22;10517;50.742;4.224;2024-03-25T14:37:53;22.70;99.90
20712;DHT22;10517;50.742;4.224;2024-03-25T14:40:18;22.70;99.90
20712;DHT22;10517;50.742;4.224;2024-03-25T14:42:44;22.50;99.90
20712;DHT22;10517;50.742;4.224;2024-03-25T14:45:10;22.10;99.90
20712;DHT22;10517;50.742;4.224;2024-03-25T14:47:36;21.80;99.90
20712;DHT22;10517;50.742;4.224;2024-03-25T14:50:02;21.60;99.90
20712;DHT22;10517;50.742;4.224;2024-03-25T14:52:30;21.90;99.90
20712;DHT22;10517;50.742;4.224;2024-03-25T14:54:56;22.20;99.90
20712;DHT22;10517;50.742;4.224;2024-03-25T14:57:21;22.20;99.90
20712;DHT22;10517;50.742;4.224;2024-03-25T14:59:47;21.70;99.90
20712;DHT22;10517;50.742;4.224;2024-03-25T15:02:13;20.70;99.90
20712;DHT22;10517;50.742;4.224;2024-03-25T15:04:42;20.60;99.90
20712;DHT22;10517;50.742;4.224;2024-03-25T15:07:10;20.70;99.90
20712;DHT22;10517;50.742;4.224;2024-03-25T15:09:36;20.90;99.90
20712;DHT22;10517;50.742;4.224;2024-03-25T15:12:01;20.30;99.90
20712;DHT22;10517;50.742;4.224;2024-03-25T15:14:30;20.10;99.90
20712;DHT22;10517;50.742;4.224;2024-03-25T15:16:59;19.90;99.90
20712;DHT22;10517;50.742;4.224;2024-03-25T15:19:25;19.60;99.90
20712;DHT22;10517;50.742;4.224;2024-03-25T15:21:50;19.10;99.90
20712;DHT22;10517;50.742;4.224;2024-03-25T15:24:16;18.80;99.90
20712;DHT22;10517;50.742;4.224;2024-03-25T15:26:42;18.70;99.90
20712;DHT22;10517;50.742;4.224;2024-03-25T15:29:07;18.10;99.90
20712;DHT22;10517;50.742;4.224;2024-03-25T15:31:33;18.10;99.90
20712;DHT22;10517;50.742;4.224;2024-03-25T15:33:59;18.40;99.90
20712;DHT22;10517;50.742;4.224;2024-03-25T15:36:25;18.30;99.90
20712;DHT22;10517;50.742;4.224;2024-03-25T15:38:52;18.10;99.90